Pagina principale
METAR-TAF:

METAR-TAF

Aeroporti :

Aeroporto di Lamezia Terme

Lamezia Terme, Italia

latitudine: 38-54N, longitudine: 016-15E, altezza: 15 m

Osservazione

Il bollettino è stato emesso 30 minuti fa, alle 11:50 UTC
Vento 30 kt da est con raffiche fino a 40 kt
Temperature 8°C
Umidità 66%
Pressione 1026 hPa
Visibilità 10 km o più
pioviggine debole, pioggia

METAR: LICA 091150Z AUTO 08030G40KT 9999 -DZRA BKN031/// 08/02 Q1026

Ora: 13:20 (12:20 UTC)

Previsione

Il bollettino è stato emesso 1 ora e 20 minuti fa, alle 11:00 UTC
Previsione valida dal 09 alle 12 UTC al 10 alle 12 UTC
Vento 22 kt da est/nord-est con raffiche fino a 35 kt
Visibilità 10 km o più
Nuvoloso ad un'altezza di 4000 ft
Evoluzione graduale
dal 09 alle 18 UTC al 09 alle 20 UTC
Vento 16 kt da est/nord-est

TAF: LICA 091100Z 0912/1012 07022G35KT 9999 BKN040 BECMG 0918/0920 07016KT

Osservazioni e previsioni meteorologiche di più di 4000 aeroporti (messaggi METAR e TAF).

Le stazioni disponibili sono rappresentate dai dischi gialli e rossi sulla carta.

Puntare il mouse per vedere il nome della stazione.

Clicca sopra per visualizzare le osservazioni e previsioni meteorologiche.

Per cambiare la mappa : fare clic sui pulsanti verdi con una croce nera per ingrandire, il pulsante verde con un trattino per diminuire, o sulla freccia verde per le mappe adiacenti.


METAR-TAF: